• Join FlightAware (Why Join?)
  • Login
  • US Flag 
12:04AM EDT


 

Airport Tracker/Info


-or-


 

Live Flight TrackerFlight Track Log ✈ CHH7104 ✈ 13-Mar-2014 ✈ ZYMD / MDG - ZBAA / PEK

Flight Track Log - Related Links

Times and Time Zones

All times are in EDT time to prevent confusion due to time zone crossing. See the CHH7104 flight status page for this flight to view local times or setup timezone preferences in your user account.

Time Position Orientation Groundspeed Altitude Reporting Facility
EDT Latitude Longitude Course Direction KTS MPH feet Rate Location/Type
03:04AM 43.8453 127.1290 250° West  Level Estimated
03:05AM 43.8081 127.0021 248° West  Level Estimated
03:06AM 43.7708 126.8754 248° West  Level Estimated
03:07AM 43.7334 126.7489 248° West  Level Estimated
03:08AM 43.6958 126.6225 248° West  Level Estimated
03:09AM 43.6581 126.4963 248° West  Level Estimated
03:10AM 43.6203 126.3702 248° West  Level Estimated
03:11AM 43.5823 126.2443 247° West  Level Estimated
03:12AM 43.5442 126.1186 247° West  Level Estimated
03:13AM 43.5059 125.9930 247° West  Level Estimated
03:14AM 43.4675 125.8676 247° West  Level Estimated
03:15AM 43.4290 125.7423 247° West  Level Estimated
03:16AM 43.3903 125.6172 247° West  Level Estimated
03:17AM 43.3515 125.4922 247° West  Level Estimated
03:18AM 43.3125 125.3675 247° West  Level Estimated
03:19AM 43.2734 125.2428 247° West  Level Estimated
03:20AM 43.2342 125.1184 247° West  Level Estimated
03:21AM 43.1949 124.9941 247° West  Level Estimated
03:22AM 43.1554 124.8699 246° West  Level Estimated
03:23AM 43.1158 124.7459 246° West  Level Estimated
03:24AM 43.0760 124.6221 246° West  Level Estimated
03:25AM 43.0361 124.4984 246° West  Level Estimated
03:26AM 42.9961 124.3749 246° West  Level Estimated
03:27AM 42.9560 124.2516 246° West  Level Estimated
03:28AM 42.9157 124.1284 246° West  Level Estimated
03:29AM 42.8753 124.0054 246° West  Level Estimated
03:30AM 42.8347 123.8825 246° West  Level Estimated
03:31AM 42.7940 123.7598 246° West  Level Estimated
03:32AM 42.7532 123.6373 246° West  Level Estimated
03:33AM 42.7123 123.5149 246° West  Level Estimated
03:34AM 42.6712 123.3927 245° Southwest  Level Estimated
03:35AM 42.6300 123.2707 245° Southwest  Level Estimated
03:36AM 42.5887 123.1488 245° Southwest  Level Estimated
03:37AM 42.5472 123.0270 245° Southwest  Level Estimated
03:38AM 42.5056 122.9055 245° Southwest  Level Estimated
03:39AM 42.4639 122.7841 245° Southwest  Level Estimated
03:40AM 42.4221 122.6628 245° Southwest  Level Estimated
03:41AM 42.3801 122.5418 245° Southwest  Level Estimated
03:42AM 42.3380 122.4208 245° Southwest  Level Estimated
03:43AM 42.2958 122.3001 245° Southwest  Level Estimated
03:44AM 42.2534 122.1795 245° Southwest  Level Estimated
03:45AM 42.2109 122.0591 245° Southwest  Level Estimated
03:46AM 42.1683 121.9388 244° Southwest  Level Estimated
03:47AM 42.1256 121.8187 244° Southwest  Level Estimated
03:48AM 42.0828 121.6987 244° Southwest  Level Estimated
03:49AM 42.0398 121.5789 244° Southwest  Level Estimated
03:50AM 41.9967 121.4593 244° Southwest  Level Estimated
03:51AM 41.9534 121.3399 244° Southwest  Level Estimated
03:52AM 41.9101 121.2206 244° Southwest  Level Estimated
03:53AM 41.8666 121.1014 244° Southwest  Level Estimated
03:54AM 41.8230 120.9825 244° Southwest  Level Estimated
03:55AM 41.7793 120.8637 244° Southwest  Level Estimated
03:56AM 41.7355 120.7450 244° Southwest  Level Estimated
03:57AM 41.6915 120.6265 244° Southwest  Level Estimated
03:58AM 41.6474 120.5082 244° Southwest  Level Estimated
03:59AM 41.6032 120.3900 243° Southwest  Level Estimated
04:00AM 41.5589 120.2720 243° Southwest  Level Estimated
04:01AM 41.5144 120.1542 243° Southwest  Level Estimated
04:02AM 41.4699 120.0365 243° Southwest  Level Estimated
04:03AM 41.4252 119.9190 243° Southwest  Level Estimated
04:04AM 41.3804 119.8017 243° Southwest  Level Estimated
04:05AM 41.3354 119.6845 243° Southwest  Level Estimated
04:06AM 41.2904 119.5674 243° Southwest  Level Estimated
04:07AM 41.2452 119.4506 243° Southwest  Level Estimated
04:08AM 41.2000 119.3339 243° Southwest  Level Estimated
04:09AM 41.1545 119.2173 243° Southwest  Level Estimated
04:10AM 41.1090 119.1009 243° Southwest  Level Estimated
04:11AM 41.0634 118.9847 243° Southwest  Level Estimated
04:12AM 41.0177 118.8687 242° Southwest  Level Estimated
04:13AM 40.9718 118.7528 242° Southwest  Level Estimated
04:14AM 40.9258 118.6370 242° Southwest  Level Estimated
04:15AM 40.8797 118.5214 242° Southwest  Level Estimated
04:16AM 40.8335 118.4060 242° Southwest  Level Estimated
04:17AM 40.7872 118.2908 242° Southwest  Level Estimated
04:18AM 40.7407 118.1757 242° Southwest  Level Estimated
04:19AM 40.6942 118.0608 242° Southwest  Level Estimated
04:20AM 40.6475 117.9460 242° Southwest  Level Estimated
04:21AM 40.6007 117.8314 242° Southwest  Level Estimated
04:22AM 40.5538 117.7169 242° Southwest  Level Estimated
04:23AM 40.5068 117.6026 242° Southwest  Level Estimated
04:24AM 40.4597 117.4885 242° Southwest  Level Estimated
04:25AM 40.4124 117.3745 241° Southwest  Level Estimated
04:26AM 40.3651 117.2607 241° Southwest  Level Estimated
04:27AM 40.3176 117.1471 241° Southwest  Level Estimated
04:28AM 40.2701 117.0336 241° Southwest  Level Estimated
04:29AM 40.2224 116.9203 241° Southwest  Level Estimated
04:30AM 40.1746 116.8071 241° Southwest  Level Estimated
04:31AM 40.1267 116.6941 241° Southwest  Level Estimated
04:32AM 40.0801 116.5846 241° Southwest  Level Estimated
04:33AM 40.0801 116.5846 North  Level Estimated
04:34AM 40.0801 116.5846 North  Level Estimated
04:35AM 40.0801 116.5846 North  Level Estimated
04:36AM 40.0801 116.5846 North  Level Estimated
04:37AM 40.0801 116.5846 North  Level Estimated
04:38AM 40.0801 116.5846 North  Level Estimated
04:39AM 40.0801 116.5846 North  Level Estimated
04:40AM 40.0801 116.5846 North  Level Estimated
04:41AM 40.0801 116.5846 North  Level Estimated
04:42AM 40.0801 116.5846 North  Level Estimated
04:43AM 40.0801 116.5846 North  Level Estimated
04:44AM 40.0801 116.5846 North  Level Estimated
04:45AM 40.0801 116.5846 North  Level Estimated
04:46AM 40.0801 116.5846 North  Level Estimated
04:47AM 40.0801 116.5846 North  Level Estimated
04:48AM 40.0801 116.5846 North  Level Estimated